createdAt,value
2018-06-09T00:00:40.000Z,100080
2018-06-09T00:01:40.000Z,100081
2018-06-09T00:03:25.000Z,100079
2018-06-09T00:04:25.000Z,100077
2018-06-09T00:05:40.000Z,100081
2018-06-09T00:07:25.000Z,100078
2018-06-09T00:08:40.000Z,100076
2018-06-09T00:10:40.000Z,100075
2018-06-09T00:12:25.000Z,100077
2018-06-09T00:13:40.000Z,100068
2018-06-09T00:15:40.000Z,100070
2018-06-09T00:17:40.000Z,100067
2018-06-09T00:18:40.000Z,100063
2018-06-09T00:20:25.000Z,100067
2018-06-09T00:21:40.000Z,100068
2018-06-09T00:22:40.000Z,100065
2018-06-09T00:24:40.000Z,100068
2018-06-09T00:25:40.000Z,100064
2018-06-09T00:27:40.000Z,100061
2018-06-09T00:29:40.000Z,100069
2018-06-09T00:30:40.000Z,100067
2018-06-09T00:32:40.000Z,100066
2018-06-09T00:34:40.000Z,100056
2018-06-09T00:35:40.000Z,100054
2018-06-09T00:36:41.000Z,100054
2018-06-09T00:38:41.000Z,100053
2018-06-09T00:40:41.000Z,100052
2018-06-09T00:41:41.000Z,100052
2018-06-09T00:43:41.000Z,100046
2018-06-09T00:45:41.000Z,100051
2018-06-09T00:47:41.000Z,100050
2018-06-09T00:49:41.000Z,100046
2018-06-09T00:50:41.000Z,100049
2018-06-09T00:52:41.000Z,100051
2018-06-09T00:54:41.000Z,100053
2018-06-09T00:56:26.000Z,100052
2018-06-09T00:57:41.000Z,100055
2018-06-09T00:59:26.000Z,100063
2018-06-09T01:00:41.000Z,100061
2018-06-09T01:02:41.000Z,100059
2018-06-09T01:04:26.000Z,100060
2018-06-09T01:05:41.000Z,100057
2018-06-09T01:06:41.000Z,100060
2018-06-09T01:08:41.000Z,100064
2018-06-09T01:10:10.000Z,100069
2018-06-09T01:11:41.000Z,100068
2018-06-09T01:13:41.000Z,100073
2018-06-09T01:15:41.000Z,100065
2018-06-09T01:16:41.000Z,100069
2018-06-09T01:18:41.000Z,100063
2018-06-09T01:20:41.000Z,100062
2018-06-09T01:21:41.000Z,100070
2018-06-09T01:23:41.000Z,100062
2018-06-09T01:25:41.000Z,100069
2018-06-09T01:27:41.000Z,100062
2018-06-09T01:28:41.000Z,100063
2018-06-09T01:30:41.000Z,100058
2018-06-09T01:32:41.000Z,100053
2018-06-09T01:34:41.000Z,100052
2018-06-09T01:36:41.000Z,100055
2018-06-09T01:38:41.000Z,100059
2018-06-09T01:40:25.000Z,100063
2018-06-09T01:41:40.000Z,100064
2018-06-09T01:42:40.000Z,100061
2018-06-09T01:44:40.000Z,100052
2018-06-09T01:45:40.000Z,100055
2018-06-09T01:46:40.000Z,100057
2018-06-09T01:48:25.000Z,100058
2018-06-09T01:49:40.000Z,100060
2018-06-09T01:50:40.000Z,100060
2018-06-09T01:52:40.000Z,100054
2018-06-09T01:53:40.000Z,100060
2018-06-09T01:55:40.000Z,100054
2018-06-09T01:57:40.000Z,100055
2018-06-09T01:59:40.000Z,100056
2018-06-09T02:01:40.000Z,100049
2018-06-09T02:03:40.000Z,100058
2018-06-09T02:05:40.000Z,100060
2018-06-09T02:06:40.000Z,100057
2018-06-09T02:08:40.000Z,100060
2018-06-09T02:10:40.000Z,100065
2018-06-09T02:11:40.000Z,100064
2018-06-09T02:13:40.000Z,100065
2018-06-09T02:14:40.000Z,100063
2018-06-09T02:16:40.000Z,100065
2018-06-09T02:18:25.000Z,100065
2018-06-09T02:19:40.000Z,100060
2018-06-09T02:21:40.000Z,100057
2018-06-09T02:23:25.000Z,100060
2018-06-09T02:24:40.000Z,100061
2018-06-09T02:26:40.000Z,100057
2018-06-09T02:27:40.000Z,100054
2018-06-09T02:28:40.000Z,100055
2018-06-09T02:30:40.000Z,100053
2018-06-09T02:31:40.000Z,100059
2018-06-09T02:32:40.000Z,100053
2018-06-09T02:34:40.000Z,100060
2018-06-09T02:36:40.000Z,100061
2018-06-09T02:38:40.000Z,100061
2018-06-09T02:40:40.000Z,100056
2018-06-09T02:41:40.000Z,100064
2018-06-09T02:43:40.000Z,100059
2018-06-09T02:45:40.000Z,100058
2018-06-09T02:47:40.000Z,100053
2018-06-09T02:49:25.000Z,100056
2018-06-09T02:50:40.000Z,100061
2018-06-09T02:51:40.000Z,100058
2018-06-09T02:52:40.000Z,100057
2018-06-09T02:53:40.000Z,100056
2018-06-09T02:54:40.000Z,100059
2018-06-09T02:56:40.000Z,100050
2018-06-09T02:58:25.000Z,100055
2018-06-09T02:59:40.000Z,100049
2018-06-09T03:01:40.000Z,100052
2018-06-09T03:03:25.000Z,100050
2018-06-09T03:04:40.000Z,100056
2018-06-09T03:05:40.000Z,100055
2018-06-09T03:07:25.000Z,100052
2018-06-09T03:08:40.000Z,100058
2018-06-09T03:10:40.000Z,100049
2018-06-09T03:12:25.000Z,100049
2018-06-09T03:13:40.000Z,100044
2018-06-09T03:14:40.000Z,100043
2018-06-09T03:16:25.000Z,100046
2018-06-09T03:17:40.000Z,100047
2018-06-09T03:19:40.000Z,100050
2018-06-09T03:20:40.000Z,100053
2018-06-09T03:22:25.000Z,100054
2018-06-09T03:23:40.000Z,100057
2018-06-09T03:25:40.000Z,100059
2018-06-09T03:26:40.000Z,100062
2018-06-09T03:28:40.000Z,100061
2018-06-09T03:30:40.000Z,100059
2018-06-09T03:32:25.000Z,100066
2018-06-09T03:33:40.000Z,100062
2018-06-09T03:35:40.000Z,100059
2018-06-09T03:37:40.000Z,100054
2018-06-09T03:39:25.000Z,100052
2018-06-09T03:40:40.000Z,100049
2018-06-09T03:41:40.000Z,100044
2018-06-09T03:43:40.000Z,100045
2018-06-09T03:45:40.000Z,100042
2018-06-09T03:47:25.000Z,100047
2018-06-09T03:48:40.000Z,100042
2018-06-09T03:49:40.000Z,100049
2018-06-09T03:51:40.000Z,100042
2018-06-09T03:53:40.000Z,100048
2018-06-09T03:54:40.000Z,100045
2018-06-09T03:56:40.000Z,100041
2018-06-09T03:58:40.000Z,100046
2018-06-09T04:00:40.000Z,100047
2018-06-09T04:01:40.000Z,100052
2018-06-09T04:03:40.000Z,100048
2018-06-09T04:05:40.000Z,100051
2018-06-09T04:07:40.000Z,100050
2018-06-09T04:09:40.000Z,100057
2018-06-09T04:11:40.000Z,100063
2018-06-09T04:12:40.000Z,100063
2018-06-09T04:14:40.000Z,100062
2018-06-09T04:16:40.000Z,100054
2018-06-09T04:18:40.000Z,100056
2018-06-09T04:20:40.000Z,100055
2018-06-09T04:22:40.000Z,100054
2018-06-09T04:24:40.000Z,100053
2018-06-09T04:26:25.000Z,100058
2018-06-09T04:28:40.000Z,100060
2018-06-09T04:30:25.000Z,100065
2018-06-09T04:31:40.000Z,100065
2018-06-09T04:33:40.000Z,100064
2018-06-09T04:34:40.000Z,100065
2018-06-09T04:35:40.000Z,100065
2018-06-09T04:37:40.000Z,100070
2018-06-09T04:38:40.000Z,100067
2018-06-09T04:40:40.000Z,100066
2018-06-09T04:42:40.000Z,100060
2018-06-09T04:44:10.000Z,100067
2018-06-09T04:45:40.000Z,100067
2018-06-09T04:47:40.000Z,100071
2018-06-09T04:48:40.000Z,100062
2018-06-09T04:50:10.000Z,100024
2018-06-09T04:51:25.000Z,100063
2018-06-09T04:52:40.000Z,100070
2018-06-09T04:54:40.000Z,100071
2018-06-09T04:56:40.000Z,100066
2018-06-09T04:58:25.000Z,100066
2018-06-09T04:59:40.000Z,100072
2018-06-09T05:01:40.000Z,100070
2018-06-09T05:03:40.000Z,100065
2018-06-09T05:05:40.000Z,100066
2018-06-09T05:06:40.000Z,100062
2018-06-09T05:08:25.000Z,100059
2018-06-09T05:09:40.000Z,100066
2018-06-09T05:10:40.000Z,100068
2018-06-09T05:12:25.000Z,100061
2018-06-09T05:13:25.000Z,100062
2018-06-09T05:14:40.000Z,100063
2018-06-09T05:16:25.000Z,100066
2018-06-09T05:17:40.000Z,100069
2018-06-09T05:18:40.000Z,100066
2018-06-09T05:20:40.000Z,100063
2018-06-09T05:22:25.000Z,100064
2018-06-09T05:23:40.000Z,100056
2018-06-09T05:25:40.000Z,100065
2018-06-09T05:27:40.000Z,100062
2018-06-09T05:29:40.000Z,100059
2018-06-09T05:31:25.000Z,100057
2018-06-09T05:32:40.000Z,100048
2018-06-09T05:34:40.000Z,100056
2018-06-09T05:36:40.000Z,100053
2018-06-09T05:38:40.000Z,100057
2018-06-09T05:39:40.000Z,100063
2018-06-09T05:40:40.000Z,100057
2018-06-09T05:42:25.000Z,100056
2018-06-09T05:43:40.000Z,100062
2018-06-09T05:45:40.000Z,100058
2018-06-09T05:47:40.000Z,100069
2018-06-09T05:49:40.000Z,100066
2018-06-09T05:51:40.000Z,100071
2018-06-09T05:53:40.000Z,100072
2018-06-09T05:54:40.000Z,100077
2018-06-09T05:56:40.000Z,100082
2018-06-09T05:58:40.000Z,100077
2018-06-09T06:00:40.000Z,100076
2018-06-09T06:01:40.000Z,100075
2018-06-09T06:03:25.000Z,100074
2018-06-09T06:04:40.000Z,100073
2018-06-09T06:06:40.000Z,100079
2018-06-09T06:08:40.000Z,100081
2018-06-09T06:09:40.000Z,100082
2018-06-09T06:11:40.000Z,100077
2018-06-09T06:12:40.000Z,100078
2018-06-09T06:17:40.000Z,100079
2018-06-09T06:19:26.000Z,100073
2018-06-09T06:21:26.000Z,100079
2018-06-09T06:23:26.000Z,100082
2018-06-09T06:25:26.000Z,100079
2018-06-09T06:27:26.000Z,100079
2018-06-09T06:29:26.000Z,100077
2018-06-09T06:31:26.000Z,100084
2018-06-09T06:33:26.000Z,100074
2018-06-09T06:35:11.000Z,100077
2018-06-09T06:36:26.000Z,100072
2018-06-09T06:38:26.000Z,100073
2018-06-09T06:39:26.000Z,100074
2018-06-09T06:41:26.000Z,100074
2018-06-09T06:43:26.000Z,100074
2018-06-09T06:44:26.000Z,100075
2018-06-09T06:46:26.000Z,100077
2018-06-09T06:48:26.000Z,100079
2018-06-09T06:50:26.000Z,100081
2018-06-09T06:52:26.000Z,100084
2018-06-09T06:54:26.000Z,100089
2018-06-09T06:56:26.000Z,100092
2018-06-09T06:57:26.000Z,100096
2018-06-09T06:59:26.000Z,100093
2018-06-09T07:00:26.000Z,100091
2018-06-09T07:02:26.000Z,100093
2018-06-09T07:04:26.000Z,100094
2018-06-09T07:06:11.000Z,100096
2018-06-09T07:07:26.000Z,100096
2018-06-09T07:08:26.000Z,100100
2018-06-09T07:10:26.000Z,100096
2018-06-09T07:11:26.000Z,100101
2018-06-09T07:13:26.000Z,100093
2018-06-09T07:15:26.000Z,100096
2018-06-09T07:17:26.000Z,100099
2018-06-09T07:19:26.000Z,100097
2018-06-09T07:21:26.000Z,100105
2018-06-09T07:23:26.000Z,100109
2018-06-09T07:24:55.000Z,100103
2018-06-09T07:26:26.000Z,100104
2018-06-09T07:27:26.000Z,100100
2018-06-09T07:29:26.000Z,100102
2018-06-09T07:30:26.000Z,100092
2018-06-09T07:32:26.000Z,100094
2018-06-09T07:33:26.000Z,100088
2018-06-09T07:35:26.000Z,100086
2018-06-09T07:37:26.000Z,100088
2018-06-09T07:39:11.000Z,100089
2018-06-09T07:40:26.000Z,100087
2018-06-09T07:42:11.000Z,100087
2018-06-09T07:43:26.000Z,100086
2018-06-09T07:45:26.000Z,100084
2018-06-09T07:47:11.000Z,100084
2018-06-09T07:48:26.000Z,100084
2018-06-09T07:50:26.000Z,100086
2018-06-09T07:52:26.000Z,100083
2018-06-09T07:54:11.000Z,100088
2018-06-09T07:55:26.000Z,100087
2018-06-09T07:56:26.000Z,100087
2018-06-09T07:58:26.000Z,100089
2018-06-09T08:00:26.000Z,100088
2018-06-09T08:01:27.000Z,100093
2018-06-09T08:03:27.000Z,100095
2018-06-09T08:04:27.000Z,100094
2018-06-09T08:06:27.000Z,100101
2018-06-09T08:08:27.000Z,100101
2018-06-09T08:10:27.000Z,100103
2018-06-09T08:11:27.000Z,100103
2018-06-09T08:13:11.000Z,100099
2018-06-09T08:14:27.000Z,100098
2018-06-09T08:15:27.000Z,100101
2018-06-09T08:17:27.000Z,100100
2018-06-09T08:18:27.000Z,100096
2018-06-09T08:20:11.000Z,100097
2018-06-09T08:21:27.000Z,100098
2018-06-09T08:22:56.000Z,100094
2018-06-09T08:24:27.000Z,100090
2018-06-09T08:25:27.000Z,100091
2018-06-09T08:26:27.000Z,100087
2018-06-09T08:28:27.000Z,100088
2018-06-09T08:29:27.000Z,100097
2018-06-09T08:31:27.000Z,100095
2018-06-09T08:32:27.000Z,100096
2018-06-09T08:34:27.000Z,100108
2018-06-09T08:35:27.000Z,100106
2018-06-09T08:37:27.000Z,100099
2018-06-09T08:39:27.000Z,100104
2018-06-09T08:41:27.000Z,100102
2018-06-09T08:42:27.000Z,100107
2018-06-09T08:44:27.000Z,100104
2018-06-09T08:45:27.000Z,100107
2018-06-09T08:47:27.000Z,100108
2018-06-09T08:48:27.000Z,100101
2018-06-09T08:50:27.000Z,100099
2018-06-09T08:52:27.000Z,100101
2018-06-09T08:54:27.000Z,100101
2018-06-09T08:55:27.000Z,100098
2018-06-09T08:57:27.000Z,100102
2018-06-09T08:59:27.000Z,100102
2018-06-09T09:00:27.000Z,100093
2018-06-09T09:01:27.000Z,100098
2018-06-09T09:03:27.000Z,100102
2018-06-09T09:05:26.000Z,100100
2018-06-09T09:07:26.000Z,100104
2018-06-09T09:09:26.000Z,100109
2018-06-09T09:10:26.000Z,100109
2018-06-09T09:11:26.000Z,100107
2018-06-09T09:12:26.000Z,100105
2018-06-09T09:13:26.000Z,100105
2018-06-09T09:15:26.000Z,100099
2018-06-09T09:16:26.000Z,100101
2018-06-09T09:18:11.000Z,100099
2018-06-09T09:19:26.000Z,100101
2018-06-09T09:21:26.000Z,100108
2018-06-09T09:22:56.000Z,100106
2018-06-09T09:24:26.000Z,100104
2018-06-09T09:26:26.000Z,100103
2018-06-09T09:27:56.000Z,100101
2018-06-09T09:29:26.000Z,100104
2018-06-09T09:31:26.000Z,100097
2018-06-09T09:33:26.000Z,100094
2018-06-09T09:34:26.000Z,100092
2018-06-09T09:36:26.000Z,100093
2018-06-09T09:38:26.000Z,100094
2018-06-09T09:40:26.000Z,100095
2018-06-09T09:42:26.000Z,100100
2018-06-09T09:43:26.000Z,100104
2018-06-09T09:45:26.000Z,100098
2018-06-09T09:46:26.000Z,100092
2018-06-09T09:48:26.000Z,100086
2018-06-09T09:49:26.000Z,100097
2018-06-09T09:50:26.000Z,100093
2018-06-09T09:52:26.000Z,100085
2018-06-09T09:53:26.000Z,100091
2018-06-09T09:55:11.000Z,100088
2018-06-09T09:56:26.000Z,100086
2018-06-09T09:58:26.000Z,100092
2018-06-09T10:00:11.000Z,100093
2018-06-09T10:01:26.000Z,100090
2018-06-09T10:02:26.000Z,100085
2018-06-09T10:04:11.000Z,100089
2018-06-09T10:05:26.000Z,100088
2018-06-09T10:06:26.000Z,100090
2018-06-09T10:08:11.000Z,100081
2018-06-09T10:09:26.000Z,100090
2018-06-09T10:10:26.000Z,100087
2018-06-09T10:12:26.000Z,100083
2018-06-09T10:13:56.000Z,100081
2018-06-09T10:15:26.000Z,100089
2018-06-09T10:16:26.000Z,100087
2018-06-09T10:18:26.000Z,100081
2018-06-09T10:19:26.000Z,100082
2018-06-09T10:21:26.000Z,100084
2018-06-09T10:23:11.000Z,100084
2018-06-09T10:24:26.000Z,100078
2018-06-09T10:26:26.000Z,100079
2018-06-09T10:28:26.000Z,100079
2018-06-09T10:30:26.000Z,100078
2018-06-09T10:32:11.000Z,100079
2018-06-09T10:33:26.000Z,100076
2018-06-09T10:35:11.000Z,100084
2018-06-09T10:36:26.000Z,100080
2018-06-09T10:37:26.000Z,100090
2018-06-09T10:39:26.000Z,100087
2018-06-09T10:41:26.000Z,100086
2018-06-09T10:43:26.000Z,100081
2018-06-09T10:45:26.000Z,100086
2018-06-09T10:46:26.000Z,100081
2018-06-09T10:48:26.000Z,100085
2018-06-09T10:49:26.000Z,100082
2018-06-09T10:50:26.000Z,100084
2018-06-09T10:51:26.000Z,100090
2018-06-09T10:53:26.000Z,100082
2018-06-09T10:55:26.000Z,100080
2018-06-09T10:56:26.000Z,100084
2018-06-09T10:58:26.000Z,100081
2018-06-09T11:00:26.000Z,100083
2018-06-09T11:02:26.000Z,100081
2018-06-09T11:04:11.000Z,100079
2018-06-09T11:05:26.000Z,100078
2018-06-09T11:07:26.000Z,100075
2018-06-09T11:08:26.000Z,100076
2018-06-09T11:09:26.000Z,100078
2018-06-09T11:10:26.000Z,100080
2018-06-09T11:12:11.000Z,100077
2018-06-09T11:13:26.000Z,100070
2018-06-09T11:14:26.000Z,100071
2018-06-09T11:16:26.000Z,100073
2018-06-09T11:18:26.000Z,100073
2018-06-09T11:20:26.000Z,100068
2018-06-09T11:22:26.000Z,100061
2018-06-09T11:23:26.000Z,100061
2018-06-09T11:25:26.000Z,100063
2018-06-09T11:27:11.000Z,100061
2018-06-09T11:28:26.000Z,100062
2018-06-09T11:30:26.000Z,100063
2018-06-09T11:31:26.000Z,100063
2018-06-09T11:32:26.000Z,100063
2018-06-09T11:33:26.000Z,100061
2018-06-09T11:35:26.000Z,100054
2018-06-09T11:36:26.000Z,100052
2018-06-09T11:38:26.000Z,100048
2018-06-09T11:39:26.000Z,100048
2018-06-09T11:41:26.000Z,100049
2018-06-09T11:43:26.000Z,100045
2018-06-09T11:45:26.000Z,100045
2018-06-09T11:47:26.000Z,100044
2018-06-09T11:49:26.000Z,100045
2018-06-09T11:51:26.000Z,100037
2018-06-09T11:52:26.000Z,100038
2018-06-09T11:53:26.000Z,100038
2018-06-09T11:55:11.000Z,100037
2018-06-09T11:56:26.000Z,100033
2018-06-09T11:58:26.000Z,100036
2018-06-09T11:59:26.000Z,100035
2018-06-09T12:01:26.000Z,100031
2018-06-09T12:02:26.000Z,100030
2018-06-09T12:04:26.000Z,100030
2018-06-09T12:05:26.000Z,100030
2018-06-09T12:07:26.000Z,100029
2018-06-09T12:09:26.000Z,100026
2018-06-09T12:10:26.000Z,100028
2018-06-09T12:12:26.000Z,100020
2018-06-09T12:14:26.000Z,100022
2018-06-09T12:16:11.000Z,100020
2018-06-09T12:17:26.000Z,100020
2018-06-09T12:18:26.000Z,100017
2018-06-09T12:19:26.000Z,100025
2018-06-09T12:21:26.000Z,100024
2018-06-09T12:22:26.000Z,100020
2018-06-09T12:24:26.000Z,100018
2018-06-09T12:26:26.000Z,100016
2018-06-09T12:28:26.000Z,100010
2018-06-09T12:29:26.000Z,100011
2018-06-09T12:31:26.000Z,100009
2018-06-09T12:32:26.000Z,100012
2018-06-09T12:34:26.000Z,100011
2018-06-09T12:35:26.000Z,100008
2018-06-09T12:37:26.000Z,100006
2018-06-09T12:39:26.000Z,100010
2018-06-09T12:41:26.000Z,100007
2018-06-09T12:43:26.000Z,100004
2018-06-09T12:45:11.000Z,100004
2018-06-09T12:46:26.000Z,100006
2018-06-09T12:48:26.000Z,99999
2018-06-09T12:50:26.000Z,99990
2018-06-09T12:52:11.000Z,99995
2018-06-09T12:53:26.000Z,99990
2018-06-09T12:55:26.000Z,99992
2018-06-09T12:57:26.000Z,99993
2018-06-09T12:58:26.000Z,99991
2018-06-09T13:00:26.000Z,99988
2018-06-09T13:01:56.000Z,99987
2018-06-09T13:03:26.000Z,99987
2018-06-09T13:05:11.000Z,99987
2018-06-09T13:06:26.000Z,99987
2018-06-09T13:08:11.000Z,99989
2018-06-09T13:09:26.000Z,99979
2018-06-09T13:10:26.000Z,99980
2018-06-09T13:11:26.000Z,99981
2018-06-09T13:13:11.000Z,99979
2018-06-09T13:14:26.000Z,99979
2018-06-09T13:16:26.000Z,99976
2018-06-09T13:17:26.000Z,99979
2018-06-09T13:19:26.000Z,99971
2018-06-09T13:20:26.000Z,99972
2018-06-09T13:22:26.000Z,99967
2018-06-09T13:23:56.000Z,99965
2018-06-09T13:25:26.000Z,99959
2018-06-09T13:26:26.000Z,99960
2018-06-09T13:28:11.000Z,99959
2018-06-09T13:29:26.000Z,99952
2018-06-09T13:31:26.000Z,99948
2018-06-09T13:32:26.000Z,99944
2018-06-09T13:34:26.000Z,99945
2018-06-09T13:36:26.000Z,99939
2018-06-09T13:38:26.000Z,99941
2018-06-09T13:39:26.000Z,99941
2018-06-09T13:40:26.000Z,99945
2018-06-09T13:42:26.000Z,99943
2018-06-09T13:44:26.000Z,99935
2018-06-09T13:45:26.000Z,99939
2018-06-09T13:47:26.000Z,99936
2018-06-09T13:48:26.000Z,99934
2018-06-09T13:50:26.000Z,99940
2018-06-09T13:52:26.000Z,99939
2018-06-09T13:53:26.000Z,99941
2018-06-09T13:55:26.000Z,99937
2018-06-09T13:57:26.000Z,99936
2018-06-09T13:59:26.000Z,99936
2018-06-09T14:01:26.000Z,99936
2018-06-09T14:03:11.000Z,99933
2018-06-09T14:04:26.000Z,99936
2018-06-09T14:06:26.000Z,99935
2018-06-09T14:07:26.000Z,99935
2018-06-09T14:08:26.000Z,99930
2018-06-09T14:10:26.000Z,99927
2018-06-09T14:12:26.000Z,99919
2018-06-09T14:14:26.000Z,99920
2018-06-09T14:16:11.000Z,99919
2018-06-09T14:17:26.000Z,99917
2018-06-09T14:18:26.000Z,99917
2018-06-09T14:20:11.000Z,99914
2018-06-09T14:21:26.000Z,99918
2018-06-09T14:22:26.000Z,99919
2018-06-09T14:24:26.000Z,99914
2018-06-09T14:26:26.000Z,99919
2018-06-09T14:28:26.000Z,99920
2018-06-09T14:30:11.000Z,99917
2018-06-09T14:31:26.000Z,99914
2018-06-09T14:33:26.000Z,99916
2018-06-09T14:35:26.000Z,99914
2018-06-09T14:36:26.000Z,99911
2018-06-09T14:38:26.000Z,99924
2018-06-09T14:40:11.000Z,99920
2018-06-09T14:41:26.000Z,99926
2018-06-09T14:43:26.000Z,99928
2018-06-09T14:45:26.000Z,99938
2018-06-09T14:46:56.000Z,99931
2018-06-09T14:48:26.000Z,99936
2018-06-09T14:50:26.000Z,99932
2018-06-09T14:52:26.000Z,99935
2018-06-09T14:53:26.000Z,99932
2018-06-09T14:55:26.000Z,99929
2018-06-09T14:57:26.000Z,99930
2018-06-09T14:58:56.000Z,99928
2018-06-09T15:00:26.000Z,99924
2018-06-09T15:01:26.000Z,99923
2018-06-09T15:03:11.000Z,99921
2018-06-09T15:04:26.000Z,99926
2018-06-09T15:06:26.000Z,99931
2018-06-09T15:08:26.000Z,99930
2018-06-09T15:10:26.000Z,99930
2018-06-09T15:11:26.000Z,99933
2018-06-09T15:13:26.000Z,99931
2018-06-09T15:14:26.000Z,99930
2018-06-09T15:16:11.000Z,99930
2018-06-09T15:17:26.000Z,99926
2018-06-09T15:18:26.000Z,99925
2018-06-09T15:20:26.000Z,99924
2018-06-09T15:22:26.000Z,99926
2018-06-09T15:24:26.000Z,99931
2018-06-09T15:25:26.000Z,99928
2018-06-09T15:27:27.000Z,99926
2018-06-09T15:29:27.000Z,99920
2018-06-09T15:31:11.000Z,99915
2018-06-09T15:32:27.000Z,99917
2018-06-09T15:33:27.000Z,99912
2018-06-09T15:34:27.000Z,99915
2018-06-09T15:36:11.000Z,99914
2018-06-09T15:37:27.000Z,99910
2018-06-09T15:39:27.000Z,99913
2018-06-09T15:40:27.000Z,99913
2018-06-09T15:42:27.000Z,99911
2018-06-09T15:44:27.000Z,99916
2018-06-09T15:46:27.000Z,99908
2018-06-09T15:48:27.000Z,99922
2018-06-09T15:50:27.000Z,99922
2018-06-09T15:52:27.000Z,99933
2018-06-09T15:54:27.000Z,99926
2018-06-09T15:56:27.000Z,99924
2018-06-09T15:58:27.000Z,99925
2018-06-09T15:59:27.000Z,99927
2018-06-09T16:01:27.000Z,99923
2018-06-09T16:02:27.000Z,99922
2018-06-09T16:03:27.000Z,99925
2018-06-09T16:05:27.000Z,99921
2018-06-09T16:07:27.000Z,99925
2018-06-09T16:09:27.000Z,99925
2018-06-09T16:11:27.000Z,99920
2018-06-09T16:13:27.000Z,99914
2018-06-09T16:15:27.000Z,99910
2018-06-09T16:17:27.000Z,99902
2018-06-09T16:19:27.000Z,99899
2018-06-09T16:20:27.000Z,99900
2018-06-09T16:22:27.000Z,99896
2018-06-09T16:24:27.000Z,99896
2018-06-09T16:25:27.000Z,99898
2018-06-09T16:27:27.000Z,99901
2018-06-09T16:29:11.000Z,99900
2018-06-09T16:30:26.000Z,99899
2018-06-09T16:32:26.000Z,99898
2018-06-09T16:33:26.000Z,99895
2018-06-09T16:34:26.000Z,99892
2018-06-09T16:36:26.000Z,99893
2018-06-09T16:38:26.000Z,99891
2018-06-09T16:39:26.000Z,99889
2018-06-09T16:41:26.000Z,99888
2018-06-09T16:42:26.000Z,99890
2018-06-09T16:43:26.000Z,99886
2018-06-09T16:45:26.000Z,99896
2018-06-09T16:47:26.000Z,99894
2018-06-09T16:49:26.000Z,99894
2018-06-09T16:50:56.000Z,99897
2018-06-09T16:52:26.000Z,99895
2018-06-09T16:53:26.000Z,99898
2018-06-09T16:55:11.000Z,99894
2018-06-09T16:56:26.000Z,99903
2018-06-09T16:58:26.000Z,99899
2018-06-09T17:00:26.000Z,99901
2018-06-09T17:02:26.000Z,99898
2018-06-09T17:03:26.000Z,99899
2018-06-09T17:04:26.000Z,99898
2018-06-09T17:06:11.000Z,99901
2018-06-09T17:07:26.000Z,99896
2018-06-09T17:08:26.000Z,99895
2018-06-09T17:10:26.000Z,99899
2018-06-09T17:12:11.000Z,99903
2018-06-09T17:13:26.000Z,99903
2018-06-09T17:15:26.000Z,99901
2018-06-09T17:16:26.000Z,99899
2018-06-09T17:18:26.000Z,99898
2018-06-09T17:19:26.000Z,99895
2018-06-09T17:21:26.000Z,99891
2018-06-09T17:23:26.000Z,99888
2018-06-09T17:24:26.000Z,99892
2018-06-09T17:26:26.000Z,99887
2018-06-09T17:28:26.000Z,99885
2018-06-09T17:30:11.000Z,99885
2018-06-09T17:31:26.000Z,99889
2018-06-09T17:32:26.000Z,99889
2018-06-09T17:34:26.000Z,99892
2018-06-09T17:36:26.000Z,99895
2018-06-09T17:38:26.000Z,99892
2018-06-09T17:40:11.000Z,99892
2018-06-09T17:41:26.000Z,99888
2018-06-09T17:43:26.000Z,99895
2018-06-09T17:44:26.000Z,99883
2018-06-09T17:46:26.000Z,99890
2018-06-09T17:48:26.000Z,99896
2018-06-09T17:49:56.000Z,99892
2018-06-09T17:51:26.000Z,99890
2018-06-09T17:52:26.000Z,99894
2018-06-09T17:53:26.000Z,99890
2018-06-09T17:55:11.000Z,99891
2018-06-09T17:56:26.000Z,99887
2018-06-09T17:58:26.000Z,99883
2018-06-09T17:59:56.000Z,99876
2018-06-09T18:01:26.000Z,99876
2018-06-09T18:02:26.000Z,99879
2018-06-09T18:04:26.000Z,99877
2018-06-09T18:06:26.000Z,99880
2018-06-09T18:07:26.000Z,99884
2018-06-09T18:09:26.000Z,99883
2018-06-09T18:10:26.000Z,99882
2018-06-09T18:12:26.000Z,99889
2018-06-09T18:14:26.000Z,99890
2018-06-09T18:16:26.000Z,99903
2018-06-09T18:18:26.000Z,99898
2018-06-09T18:19:26.000Z,99902
2018-06-09T18:20:26.000Z,99901
2018-06-09T18:22:26.000Z,99894
2018-06-09T18:23:26.000Z,99894
2018-06-09T18:25:26.000Z,99891
2018-06-09T18:27:26.000Z,99893
2018-06-09T18:29:11.000Z,99889
2018-06-09T18:30:26.000Z,99892
2018-06-09T18:31:26.000Z,99900
2018-06-09T18:33:11.000Z,99901
2018-06-09T18:34:26.000Z,99902
2018-06-09T18:35:26.000Z,99901
2018-06-09T18:36:26.000Z,99893
2018-06-09T18:38:26.000Z,99901
2018-06-09T18:40:26.000Z,99909
2018-06-09T18:42:11.000Z,99906
2018-06-09T18:43:26.000Z,99910
2018-06-09T18:45:11.000Z,99913
2018-06-09T18:46:26.000Z,99911
2018-06-09T18:47:26.000Z,99915
2018-06-09T18:49:26.000Z,99917
2018-06-09T18:51:26.000Z,99920
2018-06-09T18:52:26.000Z,99921
2018-06-09T18:54:26.000Z,99929
2018-06-09T18:55:26.000Z,99923
2018-06-09T18:57:11.000Z,99929
2018-06-09T18:58:26.000Z,99930
2018-06-09T19:00:26.000Z,99935
2018-06-09T19:01:26.000Z,99934
2018-06-09T19:02:26.000Z,99934
2018-06-09T19:04:26.000Z,99935
2018-06-09T19:05:26.000Z,99939
2018-06-09T19:06:26.000Z,99941
2018-06-09T19:07:26.000Z,99943
2018-06-09T19:09:26.000Z,99942
2018-06-09T19:11:26.000Z,99946
2018-06-09T19:12:26.000Z,99945
2018-06-09T19:14:11.000Z,99948
2018-06-09T19:15:11.000Z,99945
2018-06-09T19:16:26.000Z,99944
2018-06-09T19:17:26.000Z,99944
2018-06-09T19:19:26.000Z,99938
2018-06-09T19:21:26.000Z,99945
2018-06-09T19:22:26.000Z,99943
2018-06-09T19:24:26.000Z,99946
2018-06-09T19:26:26.000Z,99949
2018-06-09T19:28:26.000Z,99944
2018-06-09T19:30:26.000Z,99950
2018-06-09T19:32:11.000Z,99953
2018-06-09T19:33:26.000Z,99950
2018-06-09T19:35:26.000Z,99950
2018-06-09T19:36:26.000Z,99955
2018-06-09T19:38:26.000Z,99956
2018-06-09T19:39:26.000Z,99959
2018-06-09T19:41:27.000Z,99963
2018-06-09T19:42:27.000Z,99966
2018-06-09T19:44:27.000Z,99963
2018-06-09T19:45:27.000Z,99967
2018-06-09T19:47:27.000Z,99962
2018-06-09T19:49:27.000Z,99966
2018-06-09T19:51:27.000Z,99962
2018-06-09T19:53:27.000Z,99968
2018-06-09T19:55:27.000Z,99973
2018-06-09T19:56:27.000Z,99975
2018-06-09T19:58:27.000Z,99971
2018-06-09T20:00:27.000Z,99973
2018-06-09T20:01:27.000Z,99973
2018-06-09T20:02:27.000Z,99970
2018-06-09T20:04:27.000Z,99970
2018-06-09T20:06:27.000Z,99968
2018-06-09T20:08:27.000Z,99965
2018-06-09T20:09:27.000Z,99967
2018-06-09T20:10:27.000Z,99972
2018-06-09T20:12:27.000Z,99968
2018-06-09T20:14:27.000Z,99975
2018-06-09T20:15:27.000Z,99978
2018-06-09T20:17:27.000Z,99980
2018-06-09T20:19:12.000Z,99978